Time;durP1;ratioP1;P1;durP2;ratioP2;P2;SDS_P1;SDS_P2;PMS_P1;PMS_P2;Temp;Humidity;BMP_temperature;BMP_pressure;BME280_temperature;BME280_humidity;BME280_pressure;Samples;Min_cycle;Max_cycle;Signal;HPM_P1;HPM_P2
2022/12/30 00:00:21;;;;;;;12.90;2.47;;;6.60;99.90;;;;;;5055725;28;20183;-50
2022/12/30 00:02:47;;;;;;;15.03;3.07;;;6.50;99.90;;;;;;5056231;28;20192;-48
2022/12/30 00:05:12;;;;;;;16.87;2.40;;;6.50;99.90;;;;;;5055813;28;20603;-49
2022/12/30 00:07:38;;;;;;;12.80;2.37;;;6.50;99.90;;;;;;5055725;28;20547;-49
2022/12/30 00:10:04;;;;;;;7.47;2.77;;;6.50;99.90;;;;;;5056069;28;20176;-49
2022/12/30 00:35:15;;;;;;;8.00;2.43;;;6.30;99.90;;;;;;5055721;28;20225;-48
2022/12/30 00:37:40;;;;;;;13.43;2.57;;;6.30;99.90;;;;;;5055254;28;20269;-49
2022/12/30 00:40:06;;;;;;;15.83;2.80;;;6.20;99.90;;;;;;5055630;28;20204;-49
2022/12/30 00:45:16;;;;;;;14.30;2.63;;;6.20;99.90;;;;;;5055409;28;20175;-47
2022/12/30 00:47:43;;;;;;;12.47;2.53;;;6.20;99.90;;;;;;5055460;28;20187;-50
2022/12/30 00:58:21;;;;;;;12.97;2.73;;;6.10;99.90;;;;;;5054816;28;20221;-48
2022/12/30 01:00:47;;;;;;;11.53;2.53;;;6.00;99.90;;;;;;5054607;28;20629;-48
2022/12/30 01:03:12;;;;;;;12.83;2.23;;;6.00;99.90;;;;;;5054871;28;20255;-50
2022/12/30 01:05:38;;;;;;;16.20;2.77;;;6.00;99.90;;;;;;5054873;28;20186;-48
2022/12/30 01:08:04;;;;;;;16.77;2.63;;;6.00;99.90;;;;;;5054805;28;20652;-49
2022/12/30 01:10:30;;;;;;;9.57;2.10;;;6.00;99.90;;;;;;5054467;28;20184;-49
2022/12/30 01:12:55;;;;;;;18.80;2.57;;;6.00;99.90;;;;;;5055010;28;20175;-45
2022/12/30 01:15:21;;;;;;;14.07;2.30;;;6.00;99.90;;;;;;5054648;28;20179;-46
2022/12/30 01:17:47;;;;;;;8.67;1.67;;;6.00;99.90;;;;;;5054452;28;20175;-46
2022/12/30 01:20:12;;;;;;;6.70;1.33;;;6.00;99.90;;;;;;5054721;28;20179;-45
2022/12/30 01:22:38;;;;;;;8.17;2.00;;;5.90;99.90;;;;;;5054188;28;20577;-44
2022/12/30 01:25:04;;;;;;;10.47;2.60;;;5.90;99.90;;;;;;5054600;28;20730;-45
2022/12/30 01:27:32;;;;;;;11.10;2.10;;;5.90;99.90;;;;;;5054186;28;20172;-46
2022/12/30 01:29:58;;;;;;;14.90;2.70;;;5.90;99.90;;;;;;5054410;28;20662;-46
2022/12/30 01:32:23;;;;;;;11.30;1.90;;;5.90;99.90;;;;;;5054209;28;20286;-45
2022/12/30 01:34:53;;;;;;;14.57;2.53;;;5.90;99.90;;;;;;5054276;28;20215;-46
2022/12/30 01:37:19;;;;;;;13.10;2.63;;;5.80;99.90;;;;;;5054021;28;20185;-46
2022/12/30 01:39:44;;;;;;;11.83;2.33;;;5.80;99.90;;;;;;5054048;28;20190;-45
2022/12/30 01:42:24;;;;;;;10.93;1.83;;;5.80;99.90;;;;;;5054123;28;20302;-47
2022/12/30 01:45:18;;;;;;;14.87;2.47;;;5.80;99.90;;;;;;5035943;28;20183;-45
2022/12/30 01:48:23;;;;;;;12.77;2.50;;;5.80;99.90;;;;;;5054096;28;20619;-46
2022/12/30 01:50:57;;;;;;;12.07;2.27;;;5.80;99.90;;;;;;5054108;28;20278;-46
2022/12/30 01:53:31;;;;;;;11.90;2.80;;;5.70;99.90;;;;;;5054105;28;20197;-45
2022/12/30 01:55:59;;;;;;;8.80;1.93;;;5.70;99.90;;;;;;5054077;28;20172;-45
2022/12/30 01:58:38;;;;;;;9.27;2.30;;;5.70;99.90;;;;;;5053781;28;20184;-46
2022/12/30 02:01:03;;;;;;;10.17;2.43;;;5.70;99.90;;;;;;5053570;28;20596;-46
2022/12/30 02:03:36;;;;;;;7.07;1.87;;;5.60;99.90;;;;;;5054726;28;20187;-46
2022/12/30 02:06:04;;;;;;;10.40;2.37;;;5.60;99.90;;;;;;5054523;28;20185;-46
2022/12/30 02:08:32;;;;;;;14.10;1.83;;;5.60;99.90;;;;;;5053533;28;20183;-46
2022/12/30 02:10:58;;;;;;;9.30;1.50;;;5.60;99.90;;;;;;5053923;28;20564;-44
2022/12/30 02:13:24;;;;;;;7.67;1.27;;;5.60;99.90;;;;;;5053678;28;20299;-45
2022/12/30 02:16:20;;;;;;;11.50;1.80;;;5.60;99.90;;;;;;5053471;28;20701;-47
2022/12/30 02:19:17;;;;;;;11.37;1.97;;;5.50;99.90;;;;;;5054485;28;20270;-46
2022/12/30 02:21:54;;;;;;;6.83;1.53;;;5.50;99.90;;;;;;5025515;28;20320;-45
2022/12/30 02:24:32;;;;;;;14.07;2.37;;;5.40;99.90;;;;;;5054289;28;20204;-45
2022/12/30 02:27:25;;;;;;;17.33;2.13;;;5.30;99.90;;;;;;5054670;28;20639;-46
2022/12/30 02:30:09;;;;;;;10.97;2.33;;;5.30;99.90;;;;;;5053120;28;20200;-45
2022/12/30 02:33:04;;;;;;;9.57;1.97;;;5.20;99.90;;;;;;5035641;28;20217;-45
2022/12/30 02:35:55;;;;;;;7.17;2.00;;;5.10;99.90;;;;;;5053436;28;20169;-46
2022/12/30 02:38:32;;;;;;;7.50;1.73;;;5.10;99.90;;;;;;5053754;28;20219;-45
2022/12/30 02:46:52;;;;;;;14.33;1.97;;;4.90;99.90;;;;;;5053514;28;20210;-45
2022/12/30 02:49:19;;;;;;;16.73;2.43;;;4.90;99.90;;;;;;5053095;28;20202;-45
2022/12/30 02:54:31;;;;;;;15.70;2.23;;;4.80;99.90;;;;;;5053417;28;20172;-45
2022/12/30 02:56:56;;;;;;;12.77;2.70;;;4.90;99.90;;;;;;5053047;28;20185;-45
2022/12/30 03:05:36;;;;;;;11.43;2.13;;;4.80;99.90;;;;;;5053368;28;20177;-47
2022/12/30 03:08:23;;;;;;;9.40;2.33;;;4.80;99.90;;;;;;5053081;28;20158;-46
2022/12/30 03:11:16;;;;;;;7.43;1.93;;;4.70;99.90;;;;;;5053228;28;20177;-46
2022/12/30 03:14:08;;;;;;;14.53;2.47;;;4.80;99.90;;;;;;5053607;28;20168;-47
2022/12/30 03:16:45;;;;;;;11.63;1.93;;;4.80;99.90;;;;;;5052862;28;20173;-46
2022/12/30 03:19:19;;;;;;;10.57;2.40;;;4.80;99.90;;;;;;5053219;28;20170;-48
2022/12/30 03:21:47;;;;;;;10.17;2.07;;;4.70;99.90;;;;;;5052734;28;20236;-45
2022/12/30 03:27:05;;;;;;;8.97;2.10;;;4.70;99.90;;;;;;5053215;28;20236;-47
2022/12/30 03:29:39;;;;;;;10.97;2.37;;;4.60;99.90;;;;;;5052845;28;20640;-47
2022/12/30 03:32:09;;;;;;;5.77;1.47;;;4.60;99.90;;;;;;5052819;28;20223;-45
2022/12/30 03:34:35;;;;;;;5.07;1.80;;;4.60;99.90;;;;;;5052855;28;20699;-46
2022/12/30 03:37:29;;;;;;;12.60;2.60;;;4.60;99.90;;;;;;5052614;28;20265;-46
2022/12/30 03:40:00;;;;;;;9.50;2.27;;;4.70;99.90;;;;;;5053093;28;20166;-46
2022/12/30 03:42:27;;;;;;;10.60;2.20;;;4.60;99.90;;;;;;5055676;28;20734;-46
2022/12/30 03:44:53;;;;;;;14.73;1.87;;;4.60;99.90;;;;;;5056321;28;20176;-46
2022/12/30 03:47:19;;;;;;;10.77;2.37;;;4.60;99.90;;;;;;5056644;28;20215;-47
2022/12/30 03:49:45;;;;;;;7.37;2.23;;;4.60;99.90;;;;;;5056378;28;20185;-48
2022/12/30 03:52:18;;;;;;;7.47;1.90;;;4.50;99.90;;;;;;5056182;28;20243;-45
2022/12/30 03:54:44;;;;;;;11.67;2.00;;;4.60;99.90;;;;;;5056245;28;20173;-48
2022/12/30 03:57:10;;;;;;;9.93;1.83;;;4.60;99.90;;;;;;5056174;28;20182;-45
2022/12/30 03:59:35;;;;;;;14.03;2.67;;;4.60;99.90;;;;;;5055858;28;20599;-45
2022/12/30 04:02:01;;;;;;;15.03;2.87;;;4.50;99.90;;;;;;5055926;28;20215;-47
2022/12/30 04:04:26;;;;;;;8.70;1.67;;;4.50;99.90;;;;;;5055805;28;20584;-45
2022/12/30 04:06:52;;;;;;;14.90;2.30;;;4.50;99.90;;;;;;5056268;28;20539;-44
2022/12/30 04:09:18;;;;;;;8.97;1.80;;;4.50;99.90;;;;;;5057212;28;20632;-45
2022/12/30 04:11:44;;;;;;;7.03;1.67;;;4.50;99.90;;;;;;5055748;28;20201;-47
2022/12/30 04:14:10;;;;;;;8.87;2.00;;;4.50;99.90;;;;;;5038104;28;20641;-45
2022/12/30 04:16:35;;;;;;;6.93;2.10;;;4.50;99.90;;;;;;5056035;28;20214;-46
2022/12/30 04:19:01;;;;;;;12.53;2.80;;;4.50;99.90;;;;;;5055602;28;20185;-46
2022/12/30 04:21:27;;;;;;;11.83;1.77;;;4.50;99.90;;;;;;5055776;28;20248;-46
2022/12/30 04:23:52;;;;;;;6.43;1.80;;;4.50;99.90;;;;;;5055442;28;20174;-44
2022/12/30 04:26:18;;;;;;;8.73;1.80;;;4.50;99.90;;;;;;5055405;28;20223;-45
2022/12/30 04:28:43;;;;;;;13.47;2.23;;;4.40;99.90;;;;;;5055513;28;20201;-44
2022/12/30 04:31:09;;;;;;;11.10;2.67;;;4.50;99.90;;;;;;5055231;28;20672;-43
2022/12/30 04:33:34;;;;;;;9.50;1.93;;;4.50;99.90;;;;;;5055526;28;20212;-44
2022/12/30 04:36:00;;;;;;;8.77;1.63;;;4.40;99.90;;;;;;5055440;28;20607;-46
2022/12/30 04:38:26;;;;;;;8.40;1.73;;;4.40;99.90;;;;;;5055234;28;20176;-46
2022/12/30 04:40:51;;;;;;;9.57;2.00;;;4.40;99.90;;;;;;5055494;28;20227;-45
2022/12/30 04:43:17;;;;;;;12.43;2.03;;;4.40;99.90;;;;;;5055260;28;20169;-45
2022/12/30 04:45:43;;;;;;;7.70;2.57;;;4.40;99.90;;;;;;5055017;28;20173;-45
2022/12/30 04:48:09;;;;;;;8.53;2.47;;;4.40;99.90;;;;;;5055069;28;20683;-45
2022/12/30 04:50:34;;;;;;;11.20;1.90;;;4.40;99.90;;;;;;5055121;28;20180;-46
2022/12/30 04:53:00;;;;;;;7.60;1.77;;;4.40;99.90;;;;;;5055392;28;20177;-46
2022/12/30 04:55:26;;;;;;;6.10;2.00;;;4.40;99.90;;;;;;5037254;28;20555;-46
2022/12/30 04:57:52;;;;;;;7.07;2.17;;;4.40;99.90;;;;;;5055280;28;20182;-45
2022/12/30 05:00:18;;;;;;;5.40;2.10;;;4.40;99.90;;;;;;5055093;28;20190;-46
2022/12/30 05:02:43;;;;;;;12.67;2.17;;;4.40;99.90;;;;;;5054951;28;20588;-46
2022/12/30 05:05:09;;;;;;;16.37;2.47;;;4.40;99.90;;;;;;5054949;28;20543;-46
2022/12/30 05:07:35;;;;;;;7.83;2.30;;;4.40;99.90;;;;;;5054871;28;20539;-45
2022/12/30 05:10:00;;;;;;;9.27;2.37;;;4.40;99.90;;;;;;5054802;28;20323;-45
2022/12/30 05:12:26;;;;;;;7.57;2.33;;;4.40;99.90;;;;;;5054461;28;20203;-46
2022/12/30 05:14:51;;;;;;;6.67;1.63;;;4.40;99.90;;;;;;5054539;28;20551;-46
2022/12/30 05:17:17;;;;;;;10.40;1.87;;;4.40;99.90;;;;;;5054515;28;20185;-46
2022/12/30 05:19:43;;;;;;;7.57;1.97;;;4.40;99.90;;;;;;5054666;28;20283;-46
2022/12/30 05:22:08;;;;;;;8.50;2.57;;;4.40;99.90;;;;;;5054438;28;20211;-46
2022/12/30 05:27:18;;;;;;;16.23;3.07;;;4.40;99.90;;;;;;5054736;28;20246;-46
2022/12/30 05:29:43;;;;;;;10.87;1.90;;;4.30;99.90;;;;;;5054582;28;20204;-46
2022/12/30 05:32:09;;;;;;;11.73;2.47;;;4.30;99.90;;;;;;5054718;28;20196;-46
2022/12/30 05:34:34;;;;;;;6.27;2.20;;;4.30;99.90;;;;;;5054849;28;20255;-45
2022/12/30 05:37:00;;;;;;;7.23;1.70;;;4.20;99.90;;;;;;5054368;28;20180;-46
2022/12/30 05:39:26;;;;;;;10.23;2.60;;;4.10;99.90;;;;;;5054546;28;20184;-45
2022/12/30 05:41:51;;;;;;;11.10;1.83;;;4.10;99.90;;;;;;5054028;28;20295;-45
2022/12/30 05:44:17;;;;;;;11.33;1.97;;;4.10;99.90;;;;;;5054435;28;20173;-45
2022/12/30 05:46:43;;;;;;;6.50;1.80;;;4.00;99.90;;;;;;5054004;28;20165;-45
2022/12/30 05:49:08;;;;;;;5.73;1.70;;;4.00;99.90;;;;;;5054359;28;20242;-47
2022/12/30 05:51:34;;;;;;;9.90;2.20;;;4.00;99.90;;;;;;5054185;28;20295;-45
2022/12/30 05:53:59;;;;;;;9.67;2.03;;;3.90;99.90;;;;;;5036086;28;20180;-46
2022/12/30 05:56:25;;;;;;;8.50;1.70;;;4.00;99.90;;;;;;5054379;28;20184;-46
2022/12/30 05:58:50;;;;;;;8.63;2.00;;;4.00;99.90;;;;;;5054255;28;20176;-45
2022/12/30 06:01:16;;;;;;;6.43;1.70;;;4.00;99.90;;;;;;5053552;28;20220;-47
2022/12/30 06:03:41;;;;;;;5.97;1.70;;;4.00;99.90;;;;;;5053317;28;20185;-48
2022/12/30 06:06:09;;;;;;;6.70;1.83;;;4.00;99.90;;;;;;5053956;28;20179;-45
2022/12/30 06:08:35;;;;;;;7.67;1.30;;;4.00;99.90;;;;;;5053851;28;20204;-46
2022/12/30 06:11:01;;;;;;;5.83;1.70;;;3.90;99.90;;;;;;5053609;28;20237;-45
2022/12/30 06:13:27;;;;;;;14.77;2.10;;;3.90;99.90;;;;;;5053755;28;20185;-46
2022/12/30 06:15:52;;;;;;;4.10;1.10;;;3.80;99.90;;;;;;5054548;28;20180;-46
2022/12/30 06:18:18;;;;;;;10.03;1.93;;;3.70;99.90;;;;;;5053893;28;20268;-46
2022/12/30 06:20:45;;;;;;;5.60;1.43;;;3.70;99.90;;;;;;5053737;28;20440;-45
2022/12/30 06:23:10;;;;;;;7.20;1.30;;;3.70;99.90;;;;;;5053401;28;20215;-44
2022/12/30 06:25:36;;;;;;;5.23;1.77;;;3.60;99.90;;;;;;5035812;28;20212;-46
2022/12/30 06:28:02;;;;;;;10.63;2.40;;;3.50;99.90;;;;;;5053626;28;20183;-46
2022/12/30 06:30:28;;;;;;;8.40;1.67;;;3.50;99.90;;;;;;5053266;28;20644;-46
2022/12/30 06:32:54;;;;;;;6.80;1.73;;;3.40;99.90;;;;;;5053647;28;20274;-45
2022/12/30 06:35:20;;;;;;;4.50;2.00;;;3.40;99.90;;;;;;5053310;28;20230;-44
2022/12/30 06:37:45;;;;;;;9.43;1.73;;;3.30;99.90;;;;;;5035548;28;20172;-45
2022/12/30 06:40:11;;;;;;;6.87;1.67;;;3.30;99.90;;;;;;5053693;28;20177;-45
2022/12/30 06:42:37;;;;;;;9.10;1.87;;;3.30;99.90;;;;;;5053153;28;20219;-46
2022/12/30 06:45:02;;;;;;;5.70;1.67;;;3.30;99.90;;;;;;5053405;28;20168;-44
2022/12/30 06:47:28;;;;;;;11.43;1.87;;;3.30;99.90;;;;;;5053587;28;20314;-46
2022/12/30 06:49:53;;;;;;;11.10;2.20;;;3.30;99.90;;;;;;5053428;28;20234;-47
2022/12/30 06:52:19;;;;;;;9.07;1.67;;;3.30;99.90;;;;;;5053325;28;20226;-46
2022/12/30 06:54:45;;;;;;;5.93;1.33;;;3.30;99.90;;;;;;5053436;28;20696;-46
2022/12/30 06:57:10;;;;;;;6.30;1.80;;;3.30;99.90;;;;;;5053653;28;20214;-45
2022/12/30 06:59:36;;;;;;;7.43;1.80;;;3.40;99.90;;;;;;5053514;28;20176;-47
2022/12/30 07:02:02;;;;;;;7.67;1.50;;;3.30;99.90;;;;;;5053026;28;20269;-46
2022/12/30 07:04:27;;;;;;;4.40;1.67;;;3.30;99.90;;;;;;5052902;28;20643;-46
2022/12/30 07:06:53;;;;;;;5.20;1.90;;;3.30;99.90;;;;;;5053583;28;20180;-45
2022/12/30 07:09:18;;;;;;;13.20;2.47;;;3.30;99.90;;;;;;5052934;28;20177;-46
2022/12/30 07:11:44;;;;;;;8.13;1.40;;;3.30;99.90;;;;;;5052878;28;20206;-45
2022/12/30 07:14:10;;;;;;;7.77;1.40;;;3.30;99.90;;;;;;5053147;28;20709;-45
2022/12/30 07:16:35;;;;;;;5.97;1.27;;;3.30;99.90;;;;;;5055511;28;20180;-45
2022/12/30 07:19:01;;;;;;;5.27;1.43;;;3.20;99.90;;;;;;5056902;28;20567;-43
2022/12/30 07:21:27;;;;;;;6.30;1.70;;;3.30;99.90;;;;;;5057064;28;20261;-45
2022/12/30 07:23:52;;;;;;;8.23;1.80;;;3.20;99.90;;;;;;5057176;28;20184;-45
2022/12/30 07:26:18;;;;;;;6.40;2.10;;;3.20;99.90;;;;;;5057349;28;20179;-46
2022/12/30 07:28:43;;;;;;;7.80;2.20;;;3.20;99.90;;;;;;5058101;28;20553;-45
2022/12/30 07:31:09;;;;;;;3.10;1.40;;;3.30;99.90;;;;;;5057358;28;20211;-46
2022/12/30 07:33:35;;;;;;;4.23;1.20;;;3.30;99.90;;;;;;5057012;28;20180;-45
2022/12/30 07:36:00;;;;;;;5.47;1.27;;;3.40;99.90;;;;;;5056762;28;20239;-45
2022/12/30 07:38:26;;;;;;;8.20;1.80;;;3.40;99.90;;;;;;5057012;28;20188;-46
2022/12/30 07:40:51;;;;;;;7.80;1.50;;;3.50;99.90;;;;;;5056354;28;20216;-44
2022/12/30 07:43:17;;;;;;;5.90;1.50;;;3.60;99.90;;;;;;5056299;28;20180;-45
2022/12/30 07:45:42;;;;;;;5.17;1.40;;;3.70;99.90;;;;;;5056362;28;20518;-45
2022/12/30 07:48:08;;;;;;;5.50;1.20;;;3.80;99.90;;;;;;5056307;28;20259;-47
2022/12/30 07:50:33;;;;;;;6.50;1.23;;;3.80;99.90;;;;;;5056326;28;20521;-46
2022/12/30 07:52:59;;;;;;;9.00;1.83;;;3.90;99.90;;;;;;5056493;28;20561;-46
2022/12/30 07:55:25;;;;;;;6.10;1.40;;;4.00;99.90;;;;;;5056338;28;20184;-44
2022/12/30 07:57:50;;;;;;;4.63;1.47;;;4.00;99.90;;;;;;5056734;28;20643;-46
2022/12/30 08:00:16;;;;;;;4.93;1.20;;;4.10;99.90;;;;;;5056381;28;20176;-46
2022/12/30 08:02:43;;;;;;;4.30;1.20;;;4.10;99.90;;;;;;5057314;28;20699;-46
2022/12/30 08:05:09;;;;;;;4.97;1.57;;;4.20;99.90;;;;;;5056160;28;20643;-46
2022/12/30 08:07:35;;;;;;;6.50;1.03;;;4.20;99.90;;;;;;5056090;28;20572;-46
2022/12/30 08:10:01;;;;;;;5.90;1.20;;;4.40;99.90;;;;;;5056079;28;20188;-46
2022/12/30 08:12:26;;;;;;;7.03;1.47;;;4.40;99.90;;;;;;5055702;28;20250;-45
2022/12/30 08:14:52;;;;;;;4.93;1.13;;;4.50;99.90;;;;;;5056187;28;20189;-46
2022/12/30 08:17:18;;;;;;;6.23;1.23;;;4.60;99.90;;;;;;5055939;28;20199;-46
2022/12/30 08:19:43;;;;;;;3.50;0.90;;;4.70;99.90;;;;;;5055907;28;20575;-47
2022/12/30 08:22:09;;;;;;;5.50;1.33;;;4.80;99.90;;;;;;5055715;28;20226;-44
2022/12/30 08:24:34;;;;;;;5.00;1.30;;;4.80;99.90;;;;;;5056001;28;20188;-45
2022/12/30 08:27:00;;;;;;;6.83;1.47;;;4.90;99.90;;;;;;5055104;28;20173;-44
2022/12/30 08:29:25;;;;;;;9.73;1.37;;;5.00;99.90;;;;;;5055669;28;20176;-45
2022/12/30 08:31:51;;;;;;;2.73;1.03;;;5.00;99.90;;;;;;5056087;28;20226;-44
2022/12/30 08:34:20;;;;;;;3.33;1.13;;;5.10;99.90;;;;;;5055560;28;20253;-44
2022/12/30 08:36:46;;;;;;;3.37;1.03;;;5.20;99.90;;;;;;5037420;28;20263;-45
2022/12/30 08:39:13;;;;;;;6.50;1.20;;;5.30;99.90;;;;;;5037447;28;20585;-46
2022/12/30 08:41:41;;;;;;;4.93;1.43;;;5.40;99.90;;;;;;5055317;28;20211;-47
2022/12/30 08:44:07;;;;;;;6.07;1.30;;;5.40;99.90;;;;;;5055209;28;20632;-46
2022/12/30 08:46:35;;;;;;;3.37;1.40;;;5.40;99.90;;;;;;5055313;28;20259;-46
2022/12/30 08:49:01;;;;;;;6.53;1.03;;;5.40;99.90;;;;;;5055277;28;20176;-46
2022/12/30 08:51:28;;;;;;;6.03;1.43;;;5.40;99.90;;;;;;5037343;28;20729;-45
2022/12/30 08:53:53;;;;;;;6.07;1.50;;;5.50;99.90;;;;;;5055623;28;20180;-46
2022/12/30 08:56:22;;;;;;;7.27;1.40;;;5.50;99.90;;;;;;5054737;28;20663;-45
2022/12/30 08:58:48;;;;;;;3.53;1.00;;;5.50;99.90;;;;;;5054865;28;20659;-46
2022/12/30 09:01:17;;;;;;;3.33;1.17;;;5.60;99.90;;;;;;5054689;28;20235;-46
2022/12/30 09:03:43;;;;;;;5.37;1.23;;;5.60;99.90;;;;;;5054921;28;20530;-46
2022/12/30 09:06:10;;;;;;;2.70;0.93;;;5.70;99.90;;;;;;5036772;28;20715;-46
2022/12/30 09:08:36;;;;;;;4.97;1.07;;;5.80;99.90;;;;;;5054749;28;20636;-45
2022/12/30 09:11:11;;;;;;;3.60;0.97;;;6.00;99.90;;;;;;5054682;28;20204;-47
2022/12/30 09:13:37;;;;;;;3.60;1.20;;;6.10;99.90;;;;;;5054776;28;20159;-45
2022/12/30 09:16:04;;;;;;;4.57;1.10;;;6.20;99.90;;;;;;5054501;28;20188;-46
2022/12/30 09:18:30;;;;;;;2.97;1.10;;;6.20;99.90;;;;;;5054373;28;20178;-46
2022/12/30 09:20:55;;;;;;;3.27;0.83;;;6.30;99.90;;;;;;5054679;28;20291;-46
2022/12/30 09:23:21;;;;;;;2.17;1.00;;;6.40;99.90;;;;;;5054515;28;20188;-46
2022/12/30 09:25:47;;;;;;;4.57;1.00;;;6.50;99.90;;;;;;5054244;28;20184;-46
2022/12/30 09:28:13;;;;;;;5.63;1.43;;;6.50;99.90;;;;;;5054232;28;20175;-46
2022/12/30 09:30:39;;;;;;;7.43;1.73;;;6.60;99.90;;;;;;5054322;28;20185;-46
2022/12/30 09:33:05;;;;;;;10.40;1.70;;;6.70;99.90;;;;;;5054080;28;20188;-47
2022/12/30 09:35:31;;;;;;;2.00;1.17;;;6.70;99.90;;;;;;5054249;28;20225;-46
2022/12/30 09:37:56;;;;;;;7.37;1.50;;;6.80;99.90;;;;;;5054634;28;20182;-46
2022/12/30 09:40:54;;;;;;;3.87;1.20;;;6.80;99.90;;;;;;5053602;28;20189;-46
2022/12/30 09:43:23;;;;;;;5.10;1.00;;;6.80;99.90;;;;;;5054721;28;20180;-47
2022/12/30 09:46:10;;;;;;;7.00;1.50;;;6.90;99.90;;;;;;5053979;28;20542;-47
2022/12/30 09:48:44;;;;;;;2.97;1.17;;;7.00;99.90;;;;;;5054238;28;20520;-45
2022/12/30 09:51:17;;;;;;;6.20;1.80;;;7.10;99.90;;;;;;5054156;28;20193;-44
2022/12/30 09:54:03;;;;;;;6.67;1.37;;;7.10;99.90;;;;;;5053933;28;20192;-44
2022/12/30 09:56:42;;;;;;;3.27;1.33;;;7.20;99.90;;;;;;5054135;28;20614;-46
2022/12/30 09:59:25;;;;;;;7.53;1.43;;;7.20;99.90;;;;;;5053646;28;20543;-46
2022/12/30 10:02:12;;;;;;;7.47;1.50;;;7.30;99.90;;;;;;5053399;28;20233;-46
2022/12/30 10:04:37;;;;;;;7.27;1.50;;;7.40;99.90;;;;;;5053824;28;20174;-47
2022/12/30 10:07:16;;;;;;;4.27;1.67;;;7.40;99.90;;;;;;5053562;28;20177;-46
2022/12/30 10:09:42;;;;;;;5.03;1.30;;;7.50;99.90;;;;;;5053987;28;20201;-47
2022/12/30 10:12:43;;;;;;;6.30;1.33;;;7.60;99.90;;;;;;5053667;28;20284;-47
2022/12/30 10:15:35;;;;;;;6.97;1.20;;;7.70;99.90;;;;;;5035566;28;20170;-46
2022/12/30 10:18:33;;;;;;;3.93;0.93;;;7.70;99.90;;;;;;5053708;28;20533;-47
2022/12/30 10:21:05;;;;;;;5.47;1.67;;;7.80;99.90;;;;;;5037294;28;20220;-48
2022/12/30 10:23:49;;;;;;;11.73;1.87;;;7.90;99.90;;;;;;5053637;28;20575;-45
2022/12/30 10:26:24;;;;;;;7.10;1.20;;;7.90;99.90;;;;;;5053673;28;20537;-46
2022/12/30 10:29:16;;;;;;;6.97;1.67;;;8.00;99.90;;;;;;5053371;28;20261;-47
2022/12/30 10:31:45;;;;;;;5.93;1.30;;;8.00;99.90;;;;;;5053729;28;20569;-48
2022/12/30 10:34:24;;;;;;;5.97;1.23;;;8.00;99.90;;;;;;5053223;28;20180;-47
2022/12/30 10:36:54;;;;;;;4.63;1.13;;;8.00;99.90;;;;;;5053352;28;20233;-47
2022/12/30 10:39:24;;;;;;;8.50;1.53;;;8.10;99.90;;;;;;5053783;28;20680;-47
2022/12/30 10:42:22;;;;;;;7.40;1.00;;;8.00;99.90;;;;;;5055144;28;20211;-50
2022/12/30 10:45:18;;;;;;;8.77;1.23;;;8.10;99.90;;;;;;5053822;28;20163;-47
2022/12/30 10:48:02;;;;;;;10.03;1.67;;;8.10;99.90;;;;;;5053534;28;20179;-45
2022/12/30 10:50:48;;;;;;;5.07;1.00;;;8.10;99.90;;;;;;5055396;28;20179;-46
2022/12/30 10:53:18;;;;;;;5.37;1.23;;;8.20;99.90;;;;;;5057545;28;20189;-45
2022/12/30 10:55:56;;;;;;;6.13;1.30;;;8.20;99.90;;;;;;5057092;28;20766;-47
2022/12/30 10:58:39;;;;;;;6.00;1.20;;;8.20;99.90;;;;;;5057416;28;20544;-46
2022/12/30 11:01:08;;;;;;;6.83;1.17;;;8.20;99.90;;;;;;5056918;28;20245;-45
2022/12/30 11:03:43;;;;;;;7.47;1.00;;;8.20;99.90;;;;;;5057254;28;20273;-45
2022/12/30 11:06:30;;;;;;;7.27;1.70;;;8.20;99.90;;;;;;5056900;28;20182;-45
2022/12/30 11:09:11;;;;;;;3.73;1.00;;;8.20;99.90;;;;;;5057193;28;20284;-45
2022/12/30 11:14:53;;;;;;;4.47;1.23;;;8.20;99.90;;;;;;5057086;28;20176;-47
2022/12/30 11:17:26;;;;;;;6.93;1.57;;;8.20;99.90;;;;;;5056753;28;20168;-47
2022/12/30 11:19:58;;;;;;;5.70;0.90;;;8.20;99.90;;;;;;5056639;28;20168;-46
2022/12/30 11:22:24;;;;;;;4.07;1.17;;;8.20;99.90;;;;;;5056403;28;20420;-47
2022/12/30 11:25:03;;;;;;;6.03;1.50;;;8.20;99.90;;;;;;5056711;28;20180;-45
2022/12/30 11:27:38;;;;;;;3.70;0.70;;;8.20;99.90;;;;;;5056884;28;20196;-45
2022/12/30 11:30:04;;;;;;;6.33;1.10;;;8.30;99.90;;;;;;5056799;28;20210;-44
2022/12/30 11:32:31;;;;;;;3.90;1.47;;;8.30;99.90;;;;;;5056470;28;20243;-46
2022/12/30 11:34:57;;;;;;;3.10;1.07;;;8.40;99.90;;;;;;5056462;28;20263;-48
2022/12/30 11:37:35;;;;;;;5.70;1.43;;;8.40;99.90;;;;;;5056387;28;20699;-45
2022/12/30 11:40:35;;;;;;;6.97;1.00;;;8.40;99.90;;;;;;5056258;28;20631;-46
2022/12/30 11:43:13;;;;;;;3.23;0.80;;;8.40;99.90;;;;;;5056461;28;20196;-45
2022/12/30 11:46:01;;;;;;;6.40;1.30;;;8.40;99.90;;;;;;5038383;28;20548;-46
2022/12/30 11:48:56;;;;;;;6.03;0.93;;;8.40;99.90;;;;;;5056120;28;20263;-45
2022/12/30 11:51:47;;;;;;;4.60;1.00;;;8.40;99.90;;;;;;5056294;28;20230;-46
2022/12/30 11:54:19;;;;;;;7.53;1.33;;;8.40;99.90;;;;;;5056280;28;20176;-46
2022/12/30 11:57:00;;;;;;;3.73;1.10;;;8.40;99.90;;;;;;5056610;28;20179;-47
2022/12/30 11:59:47;;;;;;;2.70;1.00;;;8.40;99.90;;;;;;5056178;28;20666;-45
2022/12/30 12:02:24;;;;;;;3.17;1.20;;;8.50;99.90;;;;;;5054820;28;20243;-44
2022/12/30 12:04:50;;;;;;;3.50;1.00;;;8.50;99.90;;;;;;5055836;28;20172;-47
2022/12/30 12:07:16;;;;;;;5.83;1.10;;;8.50;99.90;;;;;;5037925;28;20271;-45
2022/12/30 12:09:44;;;;;;;4.27;0.70;;;8.50;99.90;;;;;;5055994;28;20204;-45
2022/12/30 12:12:13;;;;;;;5.70;1.30;;;8.50;99.90;;;;;;5055925;28;20196;-45
2022/12/30 12:15:15;;;;;;;5.97;1.03;;;8.60;99.90;;;;;;5056207;28;20614;-47
2022/12/30 12:18:01;;;;;;;3.37;0.90;;;8.60;99.90;;;;;;5055799;28;20168;-46
2022/12/30 12:20:40;;;;;;;4.03;1.20;;;8.60;99.90;;;;;;5056009;28;20624;-47
2022/12/30 12:23:14;;;;;;;8.07;1.20;;;8.60;99.90;;;;;;5055838;28;20528;-47
2022/12/30 12:26:06;;;;;;;4.90;1.10;;;8.60;99.90;;;;;;5055748;28;20263;-46
2022/12/30 12:28:37;;;;;;;3.37;1.10;;;8.70;99.90;;;;;;5055733;28;20164;-47
2022/12/30 12:31:20;;;;;;;6.60;1.17;;;8.60;99.90;;;;;;5037664;28;20205;-47
2022/12/30 12:34:05;;;;;;;2.13;1.10;;;8.60;99.90;;;;;;5056137;28;20567;-46
2022/12/30 12:36:46;;;;;;;3.43;0.90;;;8.70;99.90;;;;;;5055470;28;20169;-46
2022/12/30 12:39:24;;;;;;;2.80;0.80;;;8.70;99.90;;;;;;5055770;28;20230;-46
2022/12/30 12:41:56;;;;;;;2.00;1.10;;;8.70;99.90;;;;;;5055636;28;20612;-46
2022/12/30 12:44:32;;;;;;;4.97;1.00;;;8.70;99.90;;;;;;5057318;28;20192;-45
2022/12/30 12:47:23;;;;;;;2.53;1.10;;;8.80;99.90;;;;;;5055824;28;20168;-46
2022/12/30 12:50:10;;;;;;;4.00;1.07;;;8.80;99.90;;;;;;5024903;28;20184;-47
2022/12/30 12:52:39;;;;;;;5.33;1.10;;;8.80;99.90;;;;;;5055861;28;20564;-47
2022/12/30 12:55:42;;;;;;;4.73;0.87;;;8.80;99.90;;;;;;5055377;28;20259;-46
2022/12/30 12:58:27;;;;;;;6.10;1.20;;;8.90;99.90;;;;;;5055378;28;20208;-47
2022/12/30 13:01:08;;;;;;;5.00;1.00;;;8.90;99.90;;;;;;5055555;28;20207;-46
2022/12/30 13:03:48;;;;;;;2.97;1.23;;;9.00;99.90;;;;;;5056102;28;20192;-47
2022/12/30 13:06:16;;;;;;;2.70;0.97;;;9.00;99.90;;;;;;5056450;28;20161;-46
2022/12/30 13:08:47;;;;;;;4.53;1.33;;;9.00;99.90;;;;;;5056578;28;20255;-47
2022/12/30 13:11:40;;;;;;;2.97;1.07;;;9.00;99.90;;;;;;5055182;28;20673;-46
2022/12/30 13:14:21;;;;;;;2.17;1.10;;;9.00;99.90;;;;;;5054572;28;20567;-45
2022/12/30 13:16:50;;;;;;;1.50;1.30;;;9.00;99.90;;;;;;5055966;28;20168;-46
2022/12/30 13:19:20;;;;;;;5.80;1.40;;;9.00;99.90;;;;;;5055327;28;20178;-44
2022/12/30 13:21:49;;;;;;;3.93;1.43;;;9.00;99.90;;;;;;5055172;28;20311;-45
2022/12/30 13:24:36;;;;;;;3.67;1.30;;;9.00;99.90;;;;;;5054666;28;20225;-44
2022/12/30 13:27:05;;;;;;;3.33;1.43;;;8.90;99.90;;;;;;5054927;28;20160;-44
2022/12/30 13:29:37;;;;;;;6.90;1.57;;;8.90;99.90;;;;;;5036663;28;20181;-45
2022/12/30 13:32:56;;;;;;;2.83;1.50;;;8.90;99.90;;;;;;5054268;28;20196;-44
2022/12/30 13:35:39;;;;;;;3.50;1.37;;;8.90;99.90;;;;;;4973678;28;20190;-44
2022/12/30 13:38:40;;;;;;;6.13;1.70;;;8.90;99.90;;;;;;5047840;28;20592;-46
2022/12/30 13:41:20;;;;;;;3.87;1.60;;;8.90;99.90;;;;;;5054336;28;20204;-44
2022/12/30 13:43:56;;;;;;;5.63;2.00;;;8.80;99.90;;;;;;5054034;28;20179;-45
2022/12/30 13:46:31;;;;;;;3.90;1.57;;;8.80;99.90;;;;;;5054815;28;20588;-43
2022/12/30 13:49:04;;;;;;;5.40;1.47;;;8.90;99.90;;;;;;5054315;28;20164;-44
2022/12/30 13:51:30;;;;;;;3.63;1.53;;;8.90;99.90;;;;;;5054030;28;20215;-45
2022/12/30 13:54:09;;;;;;;2.37;0.97;;;8.90;99.90;;;;;;5053816;28;20177;-43
2022/12/30 13:56:42;;;;;;;2.77;1.03;;;8.90;99.90;;;;;;5054525;28;20164;-45
2022/12/30 13:59:27;;;;;;;4.40;1.70;;;8.80;99.90;;;;;;5053933;28;20173;-46
2022/12/30 14:02:19;;;;;;;1.73;1.10;;;8.90;99.90;;;;;;5053658;28;20271;-45
2022/12/30 14:04:51;;;;;;;2.47;1.33;;;8.90;99.90;;;;;;5053684;28;20160;-45
2022/12/30 14:07:38;;;;;;;3.73;1.27;;;8.80;99.90;;;;;;5053602;28;20685;-44
2022/12/30 14:10:39;;;;;;;2.47;1.17;;;8.90;99.90;;;;;;5053764;28;20178;-45
2022/12/30 14:13:14;;;;;;;3.10;1.10;;;8.90;99.90;;;;;;5053655;28;20218;-46
2022/12/30 14:15:42;;;;;;;5.43;1.23;;;8.80;99.90;;;;;;5053526;28;20163;-47